sensor_id;sensor_type;location;lat;lon;timestamp;temperature;humidity
6174;DHT22;3120;48.796;9.796;2024-02-28T00:02:09;7.10;99.90
6174;DHT22;3120;48.796;9.796;2024-02-28T00:04:34;7.00;99.90
6174;DHT22;3120;48.796;9.796;2024-02-28T00:07:00;7.00;99.90
6174;DHT22;3120;48.796;9.796;2024-02-28T00:09:26;7.10;99.90
6174;DHT22;3120;48.796;9.796;2024-02-28T00:11:51;7.10;99.90
6174;DHT22;3120;48.796;9.796;2024-02-28T00:14:17;7.10;99.90
6174;DHT22;3120;48.796;9.796;2024-02-28T00:16:43;7.10;99.90
6174;DHT22;3120;48.796;9.796;2024-02-28T00:19:09;7.00;99.90
6174;DHT22;3120;48.796;9.796;2024-02-28T00:21:36;7.00;99.90
6174;DHT22;3120;48.796;9.796;2024-02-28T00:24:02;6.90;99.90
6174;DHT22;3120;48.796;9.796;2024-02-28T00:26:28;6.80;99.90
6174;DHT22;3120;48.796;9.796;2024-02-28T00:28:53;6.70;99.90
6174;DHT22;3120;48.796;9.796;2024-02-28T00:31:19;6.70;99.90
6174;DHT22;3120;48.796;9.796;2024-02-28T00:33:46;6.60;99.90
6174;DHT22;3120;48.796;9.796;2024-02-28T00:36:12;6.50;99.90
6174;DHT22;3120;48.796;9.796;2024-02-28T00:38:38;6.40;99.90
6174;DHT22;3120;48.796;9.796;2024-02-28T00:41:03;6.30;99.90
6174;DHT22;3120;48.796;9.796;2024-02-28T00:43:29;6.30;99.90
6174;DHT22;3120;48.796;9.796;2024-02-28T00:45:54;6.20;99.90
6174;DHT22;3120;48.796;9.796;2024-02-28T00:48:21;6.20;99.90
6174;DHT22;3120;48.796;9.796;2024-02-28T00:50:47;6.30;99.90
6174;DHT22;3120;48.796;9.796;2024-02-28T00:53:13;6.20;99.90
6174;DHT22;3120;48.796;9.796;2024-02-28T00:55:38;6.20;99.90
6174;DHT22;3120;48.796;9.796;2024-02-28T00:58:04;6.20;99.90
6174;DHT22;3120;48.796;9.796;2024-02-28T01:00:29;6.10;99.90
6174;DHT22;3120;48.796;9.796;2024-02-28T01:02:55;6.10;99.90
6174;DHT22;3120;48.796;9.796;2024-02-28T01:05:21;6.00;99.90
6174;DHT22;3120;48.796;9.796;2024-02-28T01:07:46;5.90;99.90
6174;DHT22;3120;48.796;9.796;2024-02-28T01:10:12;5.80;99.90
6174;DHT22;3120;48.796;9.796;2024-02-28T01:12:38;5.70;99.90
6174;DHT22;3120;48.796;9.796;2024-02-28T01:15:03;5.60;99.90
6174;DHT22;3120;48.796;9.796;2024-02-28T01:17:29;5.60;99.90
6174;DHT22;3120;48.796;9.796;2024-02-28T01:19:55;5.40;99.90
6174;DHT22;3120;48.796;9.796;2024-02-28T01:22:20;5.30;99.90
6174;DHT22;3120;48.796;9.796;2024-02-28T01:24:46;5.30;99.90
6174;DHT22;3120;48.796;9.796;2024-02-28T01:27:11;5.20;99.90
6174;DHT22;3120;48.796;9.796;2024-02-28T01:29:37;5.20;99.90
6174;DHT22;3120;48.796;9.796;2024-02-28T01:32:03;5.10;99.90
6174;DHT22;3120;48.796;9.796;2024-02-28T01:34:28;5.20;99.90
6174;DHT22;3120;48.796;9.796;2024-02-28T01:36:54;5.40;99.90
6174;DHT22;3120;48.796;9.796;2024-02-28T01:39:19;5.60;99.90
6174;DHT22;3120;48.796;9.796;2024-02-28T01:41:52;5.70;99.90
6174;DHT22;3120;48.796;9.796;2024-02-28T01:44:18;5.80;99.90
6174;DHT22;3120;48.796;9.796;2024-02-28T01:46:43;5.80;99.90
6174;DHT22;3120;48.796;9.796;2024-02-28T01:49:09;5.80;99.90
6174;DHT22;3120;48.796;9.796;2024-02-28T01:51:35;5.90;99.90
6174;DHT22;3120;48.796;9.796;2024-02-28T01:54:01;5.80;99.90
6174;DHT22;3120;48.796;9.796;2024-02-28T01:56:27;5.80;99.90
6174;DHT22;3120;48.796;9.796;2024-02-28T01:58:54;5.70;99.90
6174;DHT22;3120;48.796;9.796;2024-02-28T02:01:20;5.80;99.90
6174;DHT22;3120;48.796;9.796;2024-02-28T02:03:46;5.90;99.90
6174;DHT22;3120;48.796;9.796;2024-02-28T02:06:12;6.00;99.90
6174;DHT22;3120;48.796;9.796;2024-02-28T02:08:37;6.00;99.90
6174;DHT22;3120;48.796;9.796;2024-02-28T02:11:04;5.90;99.90
6174;DHT22;3120;48.796;9.796;2024-02-28T02:13:30;5.90;99.90
6174;DHT22;3120;48.796;9.796;2024-02-28T02:15:55;5.90;99.90
6174;DHT22;3120;48.796;9.796;2024-02-28T02:18:21;5.90;99.90
6174;DHT22;3120;48.796;9.796;2024-02-28T02:20:50;5.90;99.90
6174;DHT22;3120;48.796;9.796;2024-02-28T02:23:17;6.00;99.90
6174;DHT22;3120;48.796;9.796;2024-02-28T02:26:19;6.00;99.90
6174;DHT22;3120;48.796;9.796;2024-02-28T02:28:45;6.00;99.90
6174;DHT22;3120;48.796;9.796;2024-02-28T02:31:12;6.00;99.90
6174;DHT22;3120;48.796;9.796;2024-02-28T02:33:38;6.00;99.90
6174;DHT22;3120;48.796;9.796;2024-02-28T02:36:04;5.90;99.90
6174;DHT22;3120;48.796;9.796;2024-02-28T02:38:30;5.80;99.90
6174;DHT22;3120;48.796;9.796;2024-02-28T02:40:55;5.80;99.90
6174;DHT22;3120;48.796;9.796;2024-02-28T02:43:21;5.80;99.90
6174;DHT22;3120;48.796;9.796;2024-02-28T02:45:46;5.80;99.90
6174;DHT22;3120;48.796;9.796;2024-02-28T02:48:12;5.80;99.90
6174;DHT22;3120;48.796;9.796;2024-02-28T02:50:38;5.90;99.90
6174;DHT22;3120;48.796;9.796;2024-02-28T02:53:04;6.00;99.90
6174;DHT22;3120;48.796;9.796;2024-02-28T02:55:29;6.10;99.90
6174;DHT22;3120;48.796;9.796;2024-02-28T02:57:55;6.10;99.90
6174;DHT22;3120;48.796;9.796;2024-02-28T03:00:22;6.00;99.90
6174;DHT22;3120;48.796;9.796;2024-02-28T03:02:47;5.90;99.90
6174;DHT22;3120;48.796;9.796;2024-02-28T03:05:13;5.90;99.90
6174;DHT22;3120;48.796;9.796;2024-02-28T03:07:39;5.90;99.90
6174;DHT22;3120;48.796;9.796;2024-02-28T03:10:05;5.90;99.90
6174;DHT22;3120;48.796;9.796;2024-02-28T03:12:31;5.90;99.90
6174;DHT22;3120;48.796;9.796;2024-02-28T03:14:57;5.80;99.90
6174;DHT22;3120;48.796;9.796;2024-02-28T03:17:23;5.90;99.90
6174;DHT22;3120;48.796;9.796;2024-02-28T03:19:48;5.80;99.90
6174;DHT22;3120;48.796;9.796;2024-02-28T03:22:14;5.80;99.90
6174;DHT22;3120;48.796;9.796;2024-02-28T03:24:40;5.80;99.90
6174;DHT22;3120;48.796;9.796;2024-02-28T03:27:06;5.80;99.90
6174;DHT22;3120;48.796;9.796;2024-02-28T03:29:32;5.90;99.90
6174;DHT22;3120;48.796;9.796;2024-02-28T03:31:58;6.00;99.90
6174;DHT22;3120;48.796;9.796;2024-02-28T03:34:24;6.00;99.90
6174;DHT22;3120;48.796;9.796;2024-02-28T03:36:50;6.10;99.90
6174;DHT22;3120;48.796;9.796;2024-02-28T03:39:16;6.20;99.90
6174;DHT22;3120;48.796;9.796;2024-02-28T03:41:42;6.20;99.90
6174;DHT22;3120;48.796;9.796;2024-02-28T03:44:07;6.20;99.90
6174;DHT22;3120;48.796;9.796;2024-02-28T03:46:33;6.20;99.90
6174;DHT22;3120;48.796;9.796;2024-02-28T03:48:58;6.20;99.90
6174;DHT22;3120;48.796;9.796;2024-02-28T03:51:24;6.20;99.90
6174;DHT22;3120;48.796;9.796;2024-02-28T03:53:50;6.10;99.90
6174;DHT22;3120;48.796;9.796;2024-02-28T03:56:25;6.10;99.90
6174;DHT22;3120;48.796;9.796;2024-02-28T03:58:52;6.10;99.90
6174;DHT22;3120;48.796;9.796;2024-02-28T04:01:17;6.10;99.90
6174;DHT22;3120;48.796;9.796;2024-02-28T04:03:43;6.10;99.90
6174;DHT22;3120;48.796;9.796;2024-02-28T04:06:09;6.20;99.90
6174;DHT22;3120;48.796;9.796;2024-02-28T04:08:34;6.20;99.90
6174;DHT22;3120;48.796;9.796;2024-02-28T04:11:00;6.20;99.90
6174;DHT22;3120;48.796;9.796;2024-02-28T04:13:25;6.20;99.90
6174;DHT22;3120;48.796;9.796;2024-02-28T04:15:51;6.20;99.90
6174;DHT22;3120;48.796;9.796;2024-02-28T04:18:17;6.20;99.90
6174;DHT22;3120;48.796;9.796;2024-02-28T04:20:42;6.10;99.90
6174;DHT22;3120;48.796;9.796;2024-02-28T04:23:08;6.10;99.90
6174;DHT22;3120;48.796;9.796;2024-02-28T07:57:45;6.10;99.90
6174;DHT22;3120;48.796;9.796;2024-02-28T08:00:12;6.10;99.90
6174;DHT22;3120;48.796;9.796;2024-02-28T08:02:38;6.20;99.90
6174;DHT22;3120;48.796;9.796;2024-02-28T08:05:04;6.20;99.90
6174;DHT22;3120;48.796;9.796;2024-02-28T08:07:32;6.20;99.90
6174;DHT22;3120;48.796;9.796;2024-02-28T08:09:58;6.20;99.90
6174;DHT22;3120;48.796;9.796;2024-02-28T08:12:23;6.30;99.90
6174;DHT22;3120;48.796;9.796;2024-02-28T08:14:49;6.30;99.90
6174;DHT22;3120;48.796;9.796;2024-02-28T08:17:15;6.30;99.90
6174;DHT22;3120;48.796;9.796;2024-02-28T08:19:42;6.30;99.90
6174;DHT22;3120;48.796;9.796;2024-02-28T08:22:07;6.30;99.90
6174;DHT22;3120;48.796;9.796;2024-02-28T08:24:33;6.70;99.90
6174;DHT22;3120;48.796;9.796;2024-02-28T08:26:58;6.20;99.90
6174;DHT22;3120;48.796;9.796;2024-02-28T08:29:24;6.20;99.90
6174;DHT22;3120;48.796;9.796;2024-02-28T08:31:49;6.20;99.90
6174;DHT22;3120;48.796;9.796;2024-02-28T08:34:22;6.20;99.90
6174;DHT22;3120;48.796;9.796;2024-02-28T08:36:47;6.20;99.90
6174;DHT22;3120;48.796;9.796;2024-02-28T08:39:13;6.30;99.90
6174;DHT22;3120;48.796;9.796;2024-02-28T08:41:38;6.40;99.90
6174;DHT22;3120;48.796;9.796;2024-02-28T08:44:04;6.40;99.90
6174;DHT22;3120;48.796;9.796;2024-02-28T08:46:29;6.40;99.90
6174;DHT22;3120;48.796;9.796;2024-02-28T08:48:55;6.40;99.90
6174;DHT22;3120;48.796;9.796;2024-02-28T08:51:21;6.50;99.90
6174;DHT22;3120;48.796;9.796;2024-02-28T08:53:46;6.40;99.90
6174;DHT22;3120;48.796;9.796;2024-02-28T08:56:12;6.40;99.90
6174;DHT22;3120;48.796;9.796;2024-02-28T08:58:38;6.40;99.90
6174;DHT22;3120;48.796;9.796;2024-02-28T09:01:03;6.40;99.90
6174;DHT22;3120;48.796;9.796;2024-02-28T09:03:29;6.30;99.90
6174;DHT22;3120;48.796;9.796;2024-02-28T09:05:55;6.30;99.90
6174;DHT22;3120;48.796;9.796;2024-02-28T09:08:20;6.20;99.90
6174;DHT22;3120;48.796;9.796;2024-02-28T09:10:46;6.20;99.90
6174;DHT22;3120;48.796;9.796;2024-02-28T09:13:12;6.20;99.90
6174;DHT22;3120;48.796;9.796;2024-02-28T09:15:38;6.20;99.90
6174;DHT22;3120;48.796;9.796;2024-02-28T09:18:04;6.20;99.90
6174;DHT22;3120;48.796;9.796;2024-02-28T09:20:30;6.10;99.90
6174;DHT22;3120;48.796;9.796;2024-02-28T09:22:55;6.10;99.90
6174;DHT22;3120;48.796;9.796;2024-02-28T09:25:21;6.20;99.90
6174;DHT22;3120;48.796;9.796;2024-02-28T09:27:47;6.20;99.90
6174;DHT22;3120;48.796;9.796;2024-02-28T09:30:13;6.20;99.90
6174;DHT22;3120;48.796;9.796;2024-02-28T09:32:39;6.30;99.90
6174;DHT22;3120;48.796;9.796;2024-02-28T09:35:04;6.30;99.90
6174;DHT22;3120;48.796;9.796;2024-02-28T09:37:30;6.30;99.90
6174;DHT22;3120;48.796;9.796;2024-02-28T09:39:58;6.30;99.90
6174;DHT22;3120;48.796;9.796;2024-02-28T09:42:24;6.30;99.90
6174;DHT22;3120;48.796;9.796;2024-02-28T09:44:49;6.60;99.90
6174;DHT22;3120;48.796;9.796;2024-02-28T09:47:16;6.30;99.90
6174;DHT22;3120;48.796;9.796;2024-02-28T09:49:45;6.30;99.90
6174;DHT22;3120;48.796;9.796;2024-02-28T09:52:15;6.40;99.90
6174;DHT22;3120;48.796;9.796;2024-02-28T09:54:41;6.30;99.90
6174;DHT22;3120;48.796;9.796;2024-02-28T09:57:11;6.50;99.90
6174;DHT22;3120;48.796;9.796;2024-02-28T09:59:42;6.50;99.90
6174;DHT22;3120;48.796;9.796;2024-02-28T10:02:09;6.60;99.90
6174;DHT22;3120;48.796;9.796;2024-02-28T10:04:36;6.60;99.90
6174;DHT22;3120;48.796;9.796;2024-02-28T10:07:15;6.60;99.90
6174;DHT22;3120;48.796;9.796;2024-02-28T10:09:41;6.70;99.90
6174;DHT22;3120;48.796;9.796;2024-02-28T10:12:07;6.80;99.90
6174;DHT22;3120;48.796;9.796;2024-02-28T10:14:33;7.00;99.90
6174;DHT22;3120;48.796;9.796;2024-02-28T10:16:59;7.00;99.90
6174;DHT22;3120;48.796;9.796;2024-02-28T10:19:24;7.00;99.90
6174;DHT22;3120;48.796;9.796;2024-02-28T10:21:50;7.10;99.90
6174;DHT22;3120;48.796;9.796;2024-02-28T10:24:16;7.10;99.90
6174;DHT22;3120;48.796;9.796;2024-02-28T10:26:46;7.20;99.90
6174;DHT22;3120;48.796;9.796;2024-02-28T10:29:24;7.40;99.90
6174;DHT22;3120;48.796;9.796;2024-02-28T10:31:54;7.70;99.90
6174;DHT22;3120;48.796;9.796;2024-02-28T10:34:20;7.50;99.90
6174;DHT22;3120;48.796;9.796;2024-02-28T10:36:46;7.60;99.90
6174;DHT22;3120;48.796;9.796;2024-02-28T10:39:12;7.60;99.90
6174;DHT22;3120;48.796;9.796;2024-02-28T10:41:38;8.40;99.90
6174;DHT22;3120;48.796;9.796;2024-02-28T10:44:04;7.90;99.90
6174;DHT22;3120;48.796;9.796;2024-02-28T10:46:30;8.00;99.90
6174;DHT22;3120;48.796;9.796;2024-02-28T10:48:56;7.80;99.90
6174;DHT22;3120;48.796;9.796;2024-02-28T10:51:26;7.80;99.90
6174;DHT22;3120;48.796;9.796;2024-02-28T10:54:11;7.70;99.90
6174;DHT22;3120;48.796;9.796;2024-02-28T10:56:37;7.70;99.90
6174;DHT22;3120;48.796;9.796;2024-02-28T10:59:07;7.90;99.90
6174;DHT22;3120;48.796;9.796;2024-02-28T11:01:35;7.90;99.90
6174;DHT22;3120;48.796;9.796;2024-02-28T11:04:03;8.20;99.90
6174;DHT22;3120;48.796;9.796;2024-02-28T11:06:28;8.30;99.90
6174;DHT22;3120;48.796;9.796;2024-02-28T11:08:54;8.20;99.90
6174;DHT22;3120;48.796;9.796;2024-02-28T11:11:22;8.60;99.90
6174;DHT22;3120;48.796;9.796;2024-02-28T11:13:58;8.70;99.90
6174;DHT22;3120;48.796;9.796;2024-02-28T11:16:31;9.10;99.90
6174;DHT22;3120;48.796;9.796;2024-02-28T11:18:57;9.70;99.90
6174;DHT22;3120;48.796;9.796;2024-02-28T11:21:27;9.40;99.90
6174;DHT22;3120;48.796;9.796;2024-02-28T11:24:00;9.00;99.90
6174;DHT22;3120;48.796;9.796;2024-02-28T11:26:26;9.00;99.90
6174;DHT22;3120;48.796;9.796;2024-02-28T11:28:56;8.90;99.90
6174;DHT22;3120;48.796;9.796;2024-02-28T11:31:22;8.90;99.90
6174;DHT22;3120;48.796;9.796;2024-02-28T11:33:47;8.80;99.90
6174;DHT22;3120;48.796;9.796;2024-02-28T11:36:13;9.20;99.90
6174;DHT22;3120;48.796;9.796;2024-02-28T11:38:40;9.40;99.90
6174;DHT22;3120;48.796;9.796;2024-02-28T11:41:06;9.40;99.90
6174;DHT22;3120;48.796;9.796;2024-02-28T11:43:32;9.30;99.90
6174;DHT22;3120;48.796;9.796;2024-02-28T11:45:58;9.20;99.90
6174;DHT22;3120;48.796;9.796;2024-02-28T11:48:25;9.10;99.90
6174;DHT22;3120;48.796;9.796;2024-02-28T11:50:53;8.90;99.90
6174;DHT22;3120;48.796;9.796;2024-02-28T11:53:19;8.80;99.90
6174;DHT22;3120;48.796;9.796;2024-02-28T11:55:45;8.80;99.90
6174;DHT22;3120;48.796;9.796;2024-02-28T11:58:13;8.90;99.90
6174;DHT22;3120;48.796;9.796;2024-02-28T12:00:48;8.80;99.90
6174;DHT22;3120;48.796;9.796;2024-02-28T12:03:14;8.80;99.90
6174;DHT22;3120;48.796;9.796;2024-02-28T12:05:43;8.80;99.90
6174;DHT22;3120;48.796;9.796;2024-02-28T12:08:10;8.90;99.90
6174;DHT22;3120;48.796;9.796;2024-02-28T12:10:35;8.90;99.90
6174;DHT22;3120;48.796;9.796;2024-02-28T12:13:01;9.00;99.90
6174;DHT22;3120;48.796;9.796;2024-02-28T12:15:30;9.10;99.90
6174;DHT22;3120;48.796;9.796;2024-02-28T12:17:56;9.00;99.90
6174;DHT22;3120;48.796;9.796;2024-02-28T12:20:23;8.90;99.90
6174;DHT22;3120;48.796;9.796;2024-02-28T12:22:49;8.90;99.90
6174;DHT22;3120;48.796;9.796;2024-02-28T12:25:15;8.90;99.90
6174;DHT22;3120;48.796;9.796;2024-02-28T12:27:40;8.80;99.90
6174;DHT22;3120;48.796;9.796;2024-02-28T12:30:06;8.70;99.90
6174;DHT22;3120;48.796;9.796;2024-02-28T12:32:32;8.80;99.90
6174;DHT22;3120;48.796;9.796;2024-02-28T12:34:57;8.90;99.90
6174;DHT22;3120;48.796;9.796;2024-02-28T12:37:23;8.80;99.90
6174;DHT22;3120;48.796;9.796;2024-02-28T12:39:49;8.70;99.90
6174;DHT22;3120;48.796;9.796;2024-02-28T12:42:16;8.80;99.90
6174;DHT22;3120;48.796;9.796;2024-02-28T12:44:42;8.80;99.90
6174;DHT22;3120;48.796;9.796;2024-02-28T12:47:11;8.80;99.90
6174;DHT22;3120;48.796;9.796;2024-02-28T12:49:37;8.80;99.90
6174;DHT22;3120;48.796;9.796;2024-02-28T12:52:03;8.60;99.90
6174;DHT22;3120;48.796;9.796;2024-02-28T12:54:30;8.60;99.90
6174;DHT22;3120;48.796;9.796;2024-02-28T12:56:55;8.60;99.90
6174;DHT22;3120;48.796;9.796;2024-02-28T12:59:21;8.60;99.90
6174;DHT22;3120;48.796;9.796;2024-02-28T13:01:47;8.60;99.90
6174;DHT22;3120;48.796;9.796;2024-02-28T13:04:15;8.50;99.90
6174;DHT22;3120;48.796;9.796;2024-02-28T13:06:41;8.40;99.90
6174;DHT22;3120;48.796;9.796;2024-02-28T13:09:07;8.30;99.90
6174;DHT22;3120;48.796;9.796;2024-02-28T13:11:37;8.20;99.90
6174;DHT22;3120;48.796;9.796;2024-02-28T13:14:03;8.30;99.90
6174;DHT22;3120;48.796;9.796;2024-02-28T13:16:29;8.30;99.90
6174;DHT22;3120;48.796;9.796;2024-02-28T13:18:55;8.20;99.90
6174;DHT22;3120;48.796;9.796;2024-02-28T13:21:21;8.30;99.90
6174;DHT22;3120;48.796;9.796;2024-02-28T13:23:46;8.30;99.90
6174;DHT22;3120;48.796;9.796;2024-02-28T13:26:12;8.30;99.90
6174;DHT22;3120;48.796;9.796;2024-02-28T13:28:44;8.40;99.90
6174;DHT22;3120;48.796;9.796;2024-02-28T13:31:10;8.20;99.90
6174;DHT22;3120;48.796;9.796;2024-02-28T13:33:36;8.10;99.90
6174;DHT22;3120;48.796;9.796;2024-02-28T13:36:07;8.10;99.90
6174;DHT22;3120;48.796;9.796;2024-02-28T13:38:33;8.10;99.90
6174;DHT22;3120;48.796;9.796;2024-02-28T13:40:58;8.10;99.90
6174;DHT22;3120;48.796;9.796;2024-02-28T13:43:25;8.10;99.90
6174;DHT22;3120;48.796;9.796;2024-02-28T13:45:52;8.00;99.90
6174;DHT22;3120;48.796;9.796;2024-02-28T13:48:23;8.10;99.90
6174;DHT22;3120;48.796;9.796;2024-02-28T13:50:55;8.10;99.90
6174;DHT22;3120;48.796;9.796;2024-02-28T13:53:21;8.20;99.90
6174;DHT22;3120;48.796;9.796;2024-02-28T13:55:46;8.10;99.90
6174;DHT22;3120;48.796;9.796;2024-02-28T13:58:13;8.00;99.90
6174;DHT22;3120;48.796;9.796;2024-02-28T14:00:39;8.00;99.90
6174;DHT22;3120;48.796;9.796;2024-02-28T14:03:05;8.00;99.90
6174;DHT22;3120;48.796;9.796;2024-02-28T14:05:34;8.80;99.90
6174;DHT22;3120;48.796;9.796;2024-02-28T14:08:00;8.10;99.90
6174;DHT22;3120;48.796;9.796;2024-02-28T14:10:26;8.10;99.90
6174;DHT22;3120;48.796;9.796;2024-02-28T14:12:51;8.10;99.90
6174;DHT22;3120;48.796;9.796;2024-02-28T14:15:21;8.10;99.90
6174;DHT22;3120;48.796;9.796;2024-02-28T14:17:47;8.10;99.90
6174;DHT22;3120;48.796;9.796;2024-02-28T14:20:13;8.10;99.90
6174;DHT22;3120;48.796;9.796;2024-02-28T14:22:39;8.00;99.90
6174;DHT22;3120;48.796;9.796;2024-02-28T14:25:14;8.00;99.90
6174;DHT22;3120;48.796;9.796;2024-02-28T14:27:42;8.00;99.90
6174;DHT22;3120;48.796;9.796;2024-02-28T14:30:08;7.90;99.90
6174;DHT22;3120;48.796;9.796;2024-02-28T14:32:38;7.90;99.90
6174;DHT22;3120;48.796;9.796;2024-02-28T14:38:32;8.00;99.90
6174;DHT22;3120;48.796;9.796;2024-02-28T14:40:58;8.00;99.90
6174;DHT22;3120;48.796;9.796;2024-02-28T14:43:24;8.00;99.90
6174;DHT22;3120;48.796;9.796;2024-02-28T14:45:49;8.00;99.90
6174;DHT22;3120;48.796;9.796;2024-02-28T14:48:15;7.90;99.90
6174;DHT22;3120;48.796;9.796;2024-02-28T14:50:40;8.00;99.90
6174;DHT22;3120;48.796;9.796;2024-02-28T14:53:07;8.00;99.90
6174;DHT22;3120;48.796;9.796;2024-02-28T14:55:33;8.00;99.90
6174;DHT22;3120;48.796;9.796;2024-02-28T14:57:59;8.00;99.90
6174;DHT22;3120;48.796;9.796;2024-02-28T15:00:25;8.10;99.90
6174;DHT22;3120;48.796;9.796;2024-02-28T15:02:51;8.10;99.90
6174;DHT22;3120;48.796;9.796;2024-02-28T15:05:19;8.10;99.90
6174;DHT22;3120;48.796;9.796;2024-02-28T15:07:45;8.10;99.90
6174;DHT22;3120;48.796;9.796;2024-02-28T15:10:10;8.00;99.90
6174;DHT22;3120;48.796;9.796;2024-02-28T15:12:36;8.00;99.90
6174;DHT22;3120;48.796;9.796;2024-02-28T15:15:03;8.00;99.90
6174;DHT22;3120;48.796;9.796;2024-02-28T15:17:30;8.00;99.90
6174;DHT22;3120;48.796;9.796;2024-02-28T15:19:55;8.00;99.90
6174;DHT22;3120;48.796;9.796;2024-02-28T15:22:21;7.90;99.90
6174;DHT22;3120;48.796;9.796;2024-02-28T15:24:47;7.90;99.90
6174;DHT22;3120;48.796;9.796;2024-02-28T15:27:13;7.90;99.90
6174;DHT22;3120;48.796;9.796;2024-02-28T15:29:38;7.90;99.90
6174;DHT22;3120;48.796;9.796;2024-02-28T15:32:11;8.00;99.90
6174;DHT22;3120;48.796;9.796;2024-02-28T15:34:38;8.00;99.90
6174;DHT22;3120;48.796;9.796;2024-02-28T15:37:04;7.90;99.90
6174;DHT22;3120;48.796;9.796;2024-02-28T15:39:29;7.80;99.90
6174;DHT22;3120;48.796;9.796;2024-02-28T15:41:55;7.80;99.90
6174;DHT22;3120;48.796;9.796;2024-02-28T15:44:27;7.80;99.90
6174;DHT22;3120;48.796;9.796;2024-02-28T15:46:52;7.80;99.90
6174;DHT22;3120;48.796;9.796;2024-02-28T15:49:18;7.80;99.90
6174;DHT22;3120;48.796;9.796;2024-02-28T15:51:44;7.80;99.90
6174;DHT22;3120;48.796;9.796;2024-02-28T15:54:10;7.70;99.90
6174;DHT22;3120;48.796;9.796;2024-02-28T15:56:36;7.60;99.90
6174;DHT22;3120;48.796;9.796;2024-02-28T15:59:03;7.50;99.90
6174;DHT22;3120;48.796;9.796;2024-02-28T16:01:30;7.50;99.90
6174;DHT22;3120;48.796;9.796;2024-02-28T16:03:56;7.50;99.90
6174;DHT22;3120;48.796;9.796;2024-02-28T16:06:22;7.50;99.90
6174;DHT22;3120;48.796;9.796;2024-02-28T16:08:50;7.50;99.90
6174;DHT22;3120;48.796;9.796;2024-02-28T16:11:16;7.50;99.90
6174;DHT22;3120;48.796;9.796;2024-02-28T16:13:43;7.40;99.90
6174;DHT22;3120;48.796;9.796;2024-02-28T16:16:08;7.40;99.90
6174;DHT22;3120;48.796;9.796;2024-02-28T16:18:35;7.40;99.90
6174;DHT22;3120;48.796;9.796;2024-02-28T16:21:02;7.40;99.90
6174;DHT22;3120;48.796;9.796;2024-02-28T16:23:29;7.40;99.90
6174;DHT22;3120;48.796;9.796;2024-02-28T16:25:55;7.30;99.90
